createdAt,value
2023-02-03T00:00:10.040Z,100.00
2023-02-03T00:02:37.980Z,100.00
2023-02-03T00:05:06.498Z,100.00
2023-02-03T00:07:34.895Z,100.00
2023-02-03T00:10:03.973Z,100.00
2023-02-03T00:12:31.818Z,100.00
2023-02-03T00:15:01.026Z,100.00
2023-02-03T00:17:29.010Z,100.00
2023-02-03T00:19:56.876Z,100.00
2023-02-03T00:22:24.643Z,100.00
2023-02-03T00:24:52.616Z,100.00
2023-02-03T00:27:22.401Z,100.00
2023-02-03T00:29:50.290Z,100.00
2023-02-03T00:32:19.762Z,100.00
2023-02-03T00:34:47.599Z,100.00
2023-02-03T00:37:15.745Z,100.00
2023-02-03T00:39:43.884Z,100.00
2023-02-03T00:42:11.711Z,100.00
2023-02-03T00:44:39.616Z,100.00
2023-02-03T00:47:07.578Z,100.00
2023-02-03T00:49:36.774Z,100.00
2023-02-03T00:52:05.023Z,100.00
2023-02-03T00:54:33.844Z,100.00
2023-02-03T00:57:01.658Z,100.00
2023-02-03T00:59:29.639Z,100.00
2023-02-03T01:01:57.544Z,100.00
2023-02-03T01:04:25.554Z,100.00
2023-02-03T01:06:57.476Z,100.00
2023-02-03T01:09:25.337Z,100.00
2023-02-03T01:11:53.336Z,100.00
2023-02-03T01:14:21.491Z,100.00
2023-02-03T01:16:49.419Z,100.00
2023-02-03T01:19:17.255Z,100.00
2023-02-03T01:21:45.119Z,100.00
2023-02-03T01:24:15.810Z,100.00
2023-02-03T01:26:44.297Z,100.00
2023-02-03T01:29:12.529Z,100.00
2023-02-03T01:31:42.574Z,100.00
2023-02-03T01:34:16.376Z,100.00
2023-02-03T01:36:44.215Z,100.00
2023-02-03T01:39:12.275Z,100.00
2023-02-03T01:41:42.744Z,100.00
2023-02-03T01:44:40.774Z,100.00
2023-02-03T01:47:15.698Z,100.00
2023-02-03T01:49:48.072Z,100.00
2023-02-03T01:52:16.559Z,100.00
2023-02-03T01:54:47.243Z,100.00
2023-02-03T01:57:20.297Z,100.00
2023-02-03T01:59:49.302Z,100.00
2023-02-03T02:02:17.329Z,100.00
2023-02-03T02:04:54.618Z,100.00
2023-02-03T02:07:22.456Z,100.00
2023-02-03T02:09:50.741Z,100.00
2023-02-03T02:12:20.152Z,100.00
2023-02-03T02:14:49.094Z,100.00
2023-02-03T02:17:29.937Z,100.00
2023-02-03T02:20:31.318Z,100.00
2023-02-03T02:23:28.455Z,100.00
2023-02-03T02:26:26.669Z,100.00
2023-02-03T02:29:24.839Z,100.00
2023-02-03T02:32:06.232Z,100.00
2023-02-03T02:34:51.311Z,100.00
2023-02-03T02:37:27.659Z,100.00
2023-02-03T02:40:02.924Z,100.00
2023-02-03T02:42:37.227Z,100.00
2023-02-03T02:45:13.491Z,100.00
2023-02-03T02:47:43.138Z,100.00
2023-02-03T02:50:19.421Z,100.00
2023-02-03T02:52:49.987Z,100.00
2023-02-03T02:55:24.723Z,100.00
2023-02-03T02:57:55.722Z,100.00
2023-02-03T03:00:24.478Z,100.00
2023-02-03T03:02:53.847Z,100.00
2023-02-03T03:05:21.936Z,100.00
2023-02-03T03:07:55.523Z,100.00
2023-02-03T03:10:27.606Z,100.00
2023-02-03T03:12:59.861Z,100.00
2023-02-03T03:15:31.816Z,100.00
2023-02-03T03:18:06.123Z,100.00
2023-02-03T03:20:37.641Z,100.00
2023-02-03T03:23:08.891Z,100.00
2023-02-03T03:25:40.904Z,100.00
2023-02-03T03:28:15.223Z,100.00
2023-02-03T03:30:43.534Z,100.00
2023-02-03T03:33:12.866Z,100.00
2023-02-03T03:35:46.967Z,100.00
2023-02-03T03:38:21.445Z,100.00
2023-02-03T03:40:56.058Z,100.00
2023-02-03T03:43:29.428Z,100.00
2023-02-03T03:46:01.862Z,100.00
2023-02-03T03:48:35.455Z,100.00
2023-02-03T03:51:08.580Z,100.00
2023-02-03T03:53:43.941Z,100.00
2023-02-03T03:56:17.283Z,100.00
2023-02-03T03:58:48.023Z,100.00
2023-02-03T04:01:17.717Z,100.00
2023-02-03T04:03:50.724Z,100.00
2023-02-03T04:06:18.739Z,100.00
2023-02-03T04:08:46.556Z,100.00
2023-02-03T04:11:35.124Z,100.00
2023-02-03T04:14:02.900Z,100.00
2023-02-03T04:16:30.971Z,100.00
2023-02-03T04:19:00.560Z,100.00
2023-02-03T04:21:28.376Z,100.00
2023-02-03T04:23:56.923Z,100.00
2023-02-03T04:26:24.909Z,100.00
2023-02-03T04:28:52.782Z,100.00
2023-02-03T04:31:20.859Z,100.00
2023-02-03T04:33:48.822Z,100.00
2023-02-03T04:36:18.101Z,100.00
2023-02-03T04:38:45.944Z,100.00
2023-02-03T04:41:13.900Z,100.00
2023-02-03T04:43:41.805Z,100.00
2023-02-03T04:46:10.516Z,100.00
2023-02-03T04:48:41.341Z,100.00
2023-02-03T04:51:09.945Z,100.00
2023-02-03T04:53:39.116Z,100.00
2023-02-03T04:56:07.316Z,100.00
2023-02-03T04:58:35.244Z,100.00
2023-02-03T05:01:09.171Z,100.00
2023-02-03T05:03:37.335Z,100.00
2023-02-03T05:06:06.105Z,100.00
2023-02-03T05:08:34.359Z,100.00
2023-02-03T05:11:05.756Z,100.00
2023-02-03T05:13:34.616Z,100.00
2023-02-03T05:16:03.157Z,100.00
2023-02-03T05:18:31.803Z,100.00
2023-02-03T05:21:00.148Z,100.00
2023-02-03T05:23:28.092Z,100.00
2023-02-03T05:25:56.433Z,100.00
2023-02-03T05:28:26.470Z,100.00
2023-02-03T05:30:54.351Z,100.00
2023-02-03T05:33:22.212Z,100.00
2023-02-03T05:35:50.236Z,100.00
2023-02-03T05:38:18.240Z,100.00
2023-02-03T05:41:06.651Z,100.00
2023-02-03T05:43:36.179Z,100.00
2023-02-03T05:46:05.652Z,100.00
2023-02-03T05:48:34.315Z,100.00
2023-02-03T05:51:02.746Z,100.00
2023-02-03T05:53:30.616Z,100.00
2023-02-03T05:55:58.449Z,100.00
2023-02-03T05:58:26.496Z,100.00
2023-02-03T06:00:55.770Z,100.00
2023-02-03T06:03:23.709Z,100.00
2023-02-03T06:05:51.645Z,100.00
2023-02-03T06:08:19.681Z,100.00
2023-02-03T06:10:47.470Z,100.00
2023-02-03T06:13:17.536Z,100.00
2023-02-03T06:15:45.340Z,100.00
2023-02-03T06:18:14.905Z,100.00
2023-02-03T06:20:42.763Z,100.00
2023-02-03T06:23:10.547Z,100.00
2023-02-03T06:25:40.445Z,100.00
2023-02-03T06:28:08.319Z,100.00
2023-02-03T06:30:36.179Z,100.00
2023-02-03T06:33:04.253Z,100.00
2023-02-03T06:35:33.629Z,100.00
2023-02-03T06:38:01.493Z,100.00
2023-02-03T06:40:29.990Z,100.00
2023-02-03T06:42:58.194Z,100.00
2023-02-03T06:45:26.221Z,100.00
2023-02-03T06:47:54.268Z,100.00
2023-02-03T06:50:22.278Z,100.00
2023-02-03T06:52:51.849Z,100.00
2023-02-03T06:55:19.955Z,100.00
2023-02-03T06:57:49.402Z,100.00
2023-02-03T07:00:19.596Z,100.00
2023-02-03T07:02:54.243Z,100.00
2023-02-03T07:05:22.235Z,100.00
2023-02-03T07:07:51.901Z,100.00
2023-02-03T07:10:20.459Z,100.00
2023-02-03T07:12:48.325Z,100.00
2023-02-03T07:15:16.996Z,100.00
2023-02-03T07:17:46.967Z,100.00
2023-02-03T07:20:14.884Z,100.00
2023-02-03T07:22:43.893Z,100.00
2023-02-03T07:25:13.437Z,100.00
2023-02-03T07:27:41.230Z,100.00
2023-02-03T07:30:10.678Z,100.00
2023-02-03T07:32:38.847Z,100.00
2023-02-03T07:35:08.595Z,100.00
2023-02-03T07:37:36.427Z,100.00
2023-02-03T07:40:04.965Z,100.00
2023-02-03T07:42:34.214Z,100.00
2023-02-03T07:45:02.031Z,100.00
2023-02-03T07:47:29.978Z,100.00
2023-02-03T07:49:57.777Z,100.00
2023-02-03T07:52:25.591Z,100.00
2023-02-03T07:54:53.404Z,100.00
2023-02-03T07:57:21.293Z,100.00
2023-02-03T07:59:50.434Z,100.00
2023-02-03T08:02:18.464Z,100.00
2023-02-03T08:04:46.417Z,100.00
2023-02-03T08:07:14.418Z,100.00
2023-02-03T08:09:42.262Z,100.00
2023-02-03T08:12:10.109Z,100.00
2023-02-03T08:14:38.064Z,100.00
2023-02-03T08:17:07.314Z,100.00
2023-02-03T08:19:35.337Z,100.00
2023-02-03T08:22:03.155Z,100.00
2023-02-03T08:24:31.051Z,100.00
2023-02-03T08:26:59.874Z,100.00
2023-02-03T08:29:27.733Z,100.00
2023-02-03T08:31:56.273Z,100.00
2023-02-03T08:34:25.417Z,100.00
2023-02-03T08:36:53.252Z,100.00
2023-02-03T08:39:23.038Z,100.00
2023-02-03T08:41:50.858Z,100.00
2023-02-03T08:44:19.867Z,100.00
2023-02-03T08:46:50.747Z,100.00
2023-02-03T08:49:19.003Z,100.00
2023-02-03T08:51:49.381Z,100.00
2023-02-03T08:54:17.533Z,100.00
2023-02-03T08:56:45.757Z,100.00
2023-02-03T08:59:14.253Z,100.00
2023-02-03T09:01:44.877Z,100.00
2023-02-03T09:04:13.263Z,100.00
2023-02-03T09:06:41.115Z,100.00
2023-02-03T09:09:10.544Z,100.00
2023-02-03T09:11:38.418Z,100.00
2023-02-03T09:14:07.424Z,100.00
2023-02-03T09:16:36.182Z,100.00
2023-02-03T09:19:04.047Z,100.00
2023-02-03T09:21:36.496Z,100.00
2023-02-03T09:24:12.609Z,100.00
2023-02-03T09:26:40.416Z,100.00
2023-02-03T09:29:08.268Z,100.00
2023-02-03T09:31:38.057Z,100.00
2023-02-03T09:34:05.929Z,100.00
2023-02-03T09:36:33.704Z,100.00
2023-02-03T09:39:01.570Z,100.00
2023-02-03T09:41:49.339Z,100.00
2023-02-03T09:44:22.742Z,100.00
2023-02-03T09:46:54.940Z,100.00
2023-02-03T09:49:28.067Z,100.00
2023-02-03T09:52:00.707Z,100.00
2023-02-03T09:54:39.203Z,100.00
2023-02-03T09:57:18.069Z,100.00
2023-02-03T09:59:46.094Z,100.00
2023-02-03T10:02:31.467Z,100.00
2023-02-03T10:05:03.958Z,100.00
2023-02-03T10:07:41.348Z,100.00
2023-02-03T10:10:18.194Z,100.00
2023-02-03T10:13:06.085Z,100.00
2023-02-03T10:16:02.901Z,100.00
2023-02-03T10:18:35.105Z,100.00
2023-02-03T10:21:07.185Z,100.00
2023-02-03T10:23:39.077Z,100.00
2023-02-03T10:26:10.818Z,100.00
2023-02-03T10:28:43.229Z,100.00
2023-02-03T10:31:19.675Z,100.00
2023-02-03T10:33:48.295Z,100.00
2023-02-03T10:36:21.555Z,100.00
2023-02-03T10:39:02.439Z,100.00
2023-02-03T10:41:32.489Z,100.00
2023-02-03T10:44:06.473Z,100.00
2023-02-03T10:46:37.093Z,100.00
2023-02-03T10:49:05.145Z,100.00
2023-02-03T10:51:38.127Z,100.00
2023-02-03T10:54:06.056Z,100.00
2023-02-03T10:56:38.832Z,100.00
2023-02-03T10:59:09.816Z,100.00
2023-02-03T11:01:43.601Z,100.00
2023-02-03T11:04:26.857Z,99.43
2023-02-03T11:06:57.342Z,99.57
2023-02-03T11:09:33.351Z,99.74
2023-02-03T11:12:09.727Z,99.70
2023-02-03T11:14:40.432Z,99.67
2023-02-03T11:17:10.216Z,100.00
2023-02-03T11:19:40.413Z,100.00
2023-02-03T11:22:08.204Z,99.75
2023-02-03T11:24:40.582Z,99.33
2023-02-03T11:27:13.321Z,99.61
2023-02-03T11:29:46.216Z,99.44
2023-02-03T11:32:21.479Z,98.37
2023-02-03T11:34:57.727Z,97.65
2023-02-03T11:37:29.528Z,97.62
2023-02-03T11:39:58.272Z,97.24
2023-02-03T11:42:26.492Z,95.85
2023-02-03T11:45:26.403Z,94.51
2023-02-03T11:47:58.160Z,94.36
2023-02-03T11:50:32.173Z,93.38
2023-02-03T11:53:16.028Z,94.88
2023-02-03T11:56:06.211Z,95.04
2023-02-03T11:58:59.474Z,95.74
2023-02-03T12:01:58.815Z,96.53
2023-02-03T12:04:54.205Z,95.79
2023-02-03T12:07:36.818Z,94.31
2023-02-03T12:10:14.344Z,92.74
2023-02-03T12:12:57.065Z,92.49
2023-02-03T12:15:50.100Z,92.20
2023-02-03T12:18:34.542Z,91.62
2023-02-03T12:21:14.560Z,91.73
2023-02-03T12:23:55.035Z,89.28
2023-02-03T12:26:26.552Z,88.41
2023-02-03T12:29:03.123Z,87.63
2023-02-03T12:31:36.851Z,88.47
2023-02-03T12:34:20.289Z,91.17
2023-02-03T12:37:46.531Z,100.00
2023-02-03T12:42:07.763Z,100.00
2023-02-03T12:45:41.238Z,100.00
2023-02-03T12:49:16.355Z,100.00
2023-02-03T12:52:47.528Z,100.00
2023-02-03T12:56:23.824Z,100.00
2023-02-03T13:00:02.369Z,100.00
2023-02-03T13:03:32.974Z,100.00
2023-02-03T13:07:08.058Z,100.00
2023-02-03T13:10:41.938Z,100.00
2023-02-03T13:14:15.502Z,100.00
2023-02-03T13:17:46.758Z,100.00
2023-02-03T13:21:16.942Z,100.00
2023-02-03T13:24:46.677Z,100.00
2023-02-03T13:28:36.077Z,100.00
2023-02-03T13:32:30.757Z,100.00
2023-02-03T13:36:16.257Z,100.00
2023-02-03T13:40:14.610Z,100.00
2023-02-03T13:43:51.183Z,100.00
2023-02-03T13:47:23.745Z,100.00
2023-02-03T13:51:02.808Z,100.00
2023-02-03T13:54:37.167Z,100.00
2023-02-03T13:58:07.233Z,100.00
2023-02-03T14:01:52.506Z,100.00
2023-02-03T14:05:42.393Z,100.00
2023-02-03T14:09:38.353Z,100.00
2023-02-03T14:13:23.647Z,100.00
2023-02-03T14:17:37.303Z,100.00
2023-02-03T14:21:14.249Z,100.00
2023-02-03T14:24:50.899Z,100.00
2023-02-03T14:28:19.644Z,100.00
2023-02-03T14:32:07.968Z,100.00
2023-02-03T14:35:36.541Z,100.00
2023-02-03T14:39:06.953Z,100.00
2023-02-03T14:43:04.825Z,100.00
2023-02-03T14:47:06.168Z,100.00
2023-02-03T14:50:51.157Z,100.00
2023-02-03T14:54:51.687Z,100.00
2023-02-03T14:58:29.569Z,100.00
2023-02-03T15:02:14.904Z,100.00
2023-02-03T15:05:42.505Z,100.00
2023-02-03T15:09:28.578Z,100.00
2023-02-03T15:12:58.192Z,100.00
2023-02-03T15:16:27.256Z,100.00
2023-02-03T15:19:54.951Z,100.00
2023-02-03T15:23:22.876Z,100.00
2023-02-03T15:26:54.571Z,100.00
2023-02-03T15:30:30.573Z,100.00
2023-02-03T15:34:03.341Z,100.00
2023-02-03T15:37:41.073Z,100.00
2023-02-03T15:41:12.338Z,100.00
2023-02-03T15:44:44.674Z,100.00
2023-02-03T15:48:29.252Z,100.00
2023-02-03T15:52:00.134Z,100.00
2023-02-03T15:55:32.257Z,100.00
2023-02-03T15:58:59.653Z,100.00
2023-02-03T16:02:29.644Z,100.00
2023-02-03T16:05:56.553Z,100.00
2023-02-03T16:09:28.532Z,100.00
2023-02-03T16:13:20.159Z,100.00
2023-02-03T16:17:05.346Z,100.00
2023-02-03T16:20:33.549Z,100.00
2023-02-03T16:24:06.815Z,100.00
2023-02-03T16:27:34.130Z,100.00
2023-02-03T16:31:39.356Z,100.00
2023-02-03T16:35:31.012Z,100.00
2023-02-03T16:39:25.511Z,100.00
2023-02-03T16:43:14.733Z,100.00
2023-02-03T16:46:59.264Z,100.00
2023-02-03T16:50:44.370Z,100.00
2023-02-03T16:54:14.210Z,100.00
2023-02-03T16:57:40.739Z,100.00
2023-02-03T17:01:09.530Z,100.00
2023-02-03T17:04:37.927Z,100.00
2023-02-03T17:08:04.457Z,100.00
2023-02-03T17:11:30.940Z,100.00
2023-02-03T17:14:58.555Z,100.00
2023-02-03T17:18:25.538Z,100.00
2023-02-03T17:21:53.426Z,100.00
2023-02-03T17:25:19.936Z,100.00
2023-02-03T17:28:46.593Z,100.00
2023-02-03T17:32:16.521Z,100.00
2023-02-03T17:35:44.402Z,100.00
2023-02-03T17:54:12.644Z,100.00
2023-02-03T17:57:39.028Z,100.00
2023-02-03T18:01:15.789Z,100.00
2023-02-03T18:04:44.516Z,100.00
2023-02-03T18:08:16.299Z,100.00
2023-02-03T18:11:45.747Z,100.00
2023-02-03T18:15:12.918Z,100.00
2023-02-03T18:18:39.607Z,100.00
2023-02-03T18:22:07.230Z,100.00
2023-02-03T18:25:35.951Z,100.00
2023-02-03T18:29:05.932Z,100.00
2023-02-03T18:32:33.574Z,100.00
2023-02-03T18:36:01.836Z,100.00
2023-02-03T18:39:28.981Z,100.00
2023-02-03T18:42:56.897Z,100.00
2023-02-03T18:46:26.813Z,100.00
2023-02-03T18:49:53.499Z,100.00
2023-02-03T18:53:20.413Z,100.00
2023-02-03T18:56:47.521Z,100.00
2023-02-03T19:00:15.713Z,100.00
2023-02-03T19:03:43.734Z,100.00
2023-02-03T19:07:11.599Z,100.00
2023-02-03T19:10:38.003Z,100.00
2023-02-03T19:14:04.860Z,100.00
2023-02-03T19:17:31.866Z,100.00
2023-02-03T19:21:00.001Z,100.00
2023-02-03T19:24:27.413Z,100.00
2023-02-03T19:27:54.389Z,100.00
2023-02-03T19:31:20.855Z,100.00
2023-02-03T19:34:47.286Z,100.00
2023-02-03T19:38:15.103Z,100.00
2023-02-03T19:41:41.662Z,100.00
2023-02-03T19:45:08.653Z,100.00
2023-02-03T19:48:35.029Z,100.00
2023-02-03T19:52:01.582Z,100.00
2023-02-03T19:55:30.726Z,100.00
2023-02-03T19:58:57.188Z,100.00
2023-02-03T20:02:23.805Z,100.00
2023-02-03T20:05:50.587Z,100.00
2023-02-03T20:09:16.986Z,100.00
2023-02-03T20:12:45.047Z,100.00
2023-02-03T20:16:11.573Z,100.00
2023-02-03T20:19:38.435Z,100.00
2023-02-03T20:23:04.978Z,100.00
2023-02-03T20:26:31.488Z,100.00
2023-02-03T20:29:59.310Z,100.00
2023-02-03T20:33:27.729Z,100.00
2023-02-03T20:36:55.410Z,100.00
2023-02-03T20:40:23.659Z,100.00
2023-02-03T20:43:52.868Z,100.00
2023-02-03T20:47:22.468Z,100.00
2023-02-03T20:50:50.306Z,100.00
2023-02-03T20:54:19.306Z,100.00
2023-02-03T20:57:47.635Z,100.00
2023-02-03T21:01:15.761Z,100.00
2023-02-03T21:04:58.957Z,100.00
2023-02-03T21:08:26.766Z,100.00
2023-02-03T21:11:53.517Z,100.00
2023-02-03T21:15:21.492Z,100.00
2023-02-03T21:18:50.555Z,100.00
2023-02-03T21:22:21.050Z,100.00
2023-02-03T21:25:49.424Z,100.00
2023-02-03T21:29:23.944Z,100.00
2023-02-03T21:32:50.612Z,100.00
2023-02-03T21:36:31.291Z,100.00
2023-02-03T21:39:58.916Z,100.00
2023-02-03T21:43:29.432Z,100.00
2023-02-03T21:46:56.036Z,100.00
2023-02-03T21:50:31.612Z,100.00
2023-02-03T21:54:03.816Z,100.00
2023-02-03T21:57:35.676Z,100.00
2023-02-03T22:01:06.088Z,100.00
2023-02-03T22:04:33.806Z,100.00
2023-02-03T22:08:03.692Z,100.00
2023-02-03T22:11:31.487Z,100.00
2023-02-03T22:14:57.774Z,100.00
2023-02-03T22:18:24.216Z,100.00
2023-02-03T22:21:52.268Z,100.00
2023-02-03T22:25:20.092Z,100.00
2023-02-03T22:28:46.860Z,100.00
2023-02-03T22:32:13.235Z,100.00
2023-02-03T22:35:39.953Z,100.00
2023-02-03T22:39:06.600Z,100.00
2023-02-03T22:42:34.484Z,100.00
2023-02-03T22:46:01.777Z,100.00
2023-02-03T22:49:28.185Z,100.00
2023-02-03T22:52:54.746Z,100.00
2023-02-03T22:56:22.918Z,100.00
2023-02-03T22:59:51.498Z,100.00
2023-02-03T23:03:18.068Z,100.00
2023-02-03T23:06:44.589Z,100.00
2023-02-03T23:10:12.236Z,100.00
2023-02-03T23:13:38.668Z,100.00
2023-02-03T23:17:06.810Z,100.00
2023-02-03T23:20:33.827Z,100.00
2023-02-03T23:24:00.220Z,100.00
2023-02-03T23:27:26.790Z,100.00
2023-02-03T23:30:53.209Z,100.00
2023-02-03T23:34:38.556Z,100.00
2023-02-03T23:38:04.954Z,100.00
2023-02-03T23:41:31.611Z,100.00
2023-02-03T23:44:59.121Z,100.00
2023-02-03T23:48:26.928Z,100.00
2023-02-03T23:51:53.188Z,100.00
2023-02-03T23:55:20.891Z,100.00
2023-02-03T23:58:47.296Z,100.00
